sensor_id;sensor_type;location;lat;lon;timestamp;pressure;altitude;pressure_sealevel;temperature;humidity
59315;BME280;46521;50.160;20.802;2022-09-06T00:01:16;100426.09;;;14.33;45.01
59315;BME280;46521;50.160;20.802;2022-09-06T00:11:18;100416.19;;;14.10;45.60
59315;BME280;46521;50.160;20.802;2022-09-06T00:21:29;100433.34;;;14.08;45.23
59315;BME280;46521;50.160;20.802;2022-09-06T00:31:31;100424.07;;;13.95;45.69
59315;BME280;46521;50.160;20.802;2022-09-06T00:41:32;100426.90;;;13.85;45.85
59315;BME280;46521;50.160;20.802;2022-09-06T00:51:35;100416.13;;;13.79;46.54
59315;BME280;46521;50.160;20.802;2022-09-06T01:01:37;100418.30;;;13.75;46.82
59315;BME280;46521;50.160;20.802;2022-09-06T01:32:48;100402.10;;;13.37;47.74
59315;BME280;46521;50.160;20.802;2022-09-06T01:42:51;100407.06;;;13.15;47.29
59315;BME280;46521;50.160;20.802;2022-09-06T02:03:51;100410.03;;;12.88;48.16
59315;BME280;46521;50.160;20.802;2022-09-06T02:14:02;100414.84;;;12.76;48.64
59315;BME280;46521;50.160;20.802;2022-09-06T02:24:08;100402.34;;;12.60;48.00
59315;BME280;46521;50.160;20.802;2022-09-06T02:34:13;100403.30;;;12.42;48.98
59315;BME280;46521;50.160;20.802;2022-09-06T02:44:15;100393.96;;;12.22;48.87
59315;BME280;46521;50.160;20.802;2022-09-06T02:54:17;100386.63;;;12.07;48.94
59315;BME280;46521;50.160;20.802;2022-09-06T03:04:18;100371.98;;;11.95;50.11
59315;BME280;46521;50.160;20.802;2022-09-06T03:14:19;100373.92;;;11.85;50.17
59315;BME280;46521;50.160;20.802;2022-09-06T03:24:21;100384.83;;;11.82;49.68
59315;BME280;46521;50.160;20.802;2022-09-06T03:34:22;100378.20;;;11.86;50.15
59315;BME280;46521;50.160;20.802;2022-09-06T03:44:24;100389.72;;;11.68;50.89
59315;BME280;46521;50.160;20.802;2022-09-06T03:54:25;100386.02;;;11.61;51.27
59315;BME280;46521;50.160;20.802;2022-09-06T04:04:28;100381.34;;;11.55;50.88
59315;BME280;46521;50.160;20.802;2022-09-06T04:14:29;100388.78;;;11.51;51.29
59315;BME280;46521;50.160;20.802;2022-09-06T04:24:31;100382.63;;;11.43;51.60
59315;BME280;46521;50.160;20.802;2022-09-06T04:34:33;100393.53;;;11.40;51.42
59315;BME280;46521;50.160;20.802;2022-09-06T04:44:34;100396.33;;;11.38;51.69
59315;BME280;46521;50.160;20.802;2022-09-06T04:54:36;100383.84;;;11.57;52.17
59315;BME280;46521;50.160;20.802;2022-09-06T05:04:37;100382.50;;;11.79;51.73
59315;BME280;46521;50.160;20.802;2022-09-06T05:14:38;100389.77;;;12.11;52.18
59315;BME280;46521;50.160;20.802;2022-09-06T05:24:40;100396.38;;;12.58;51.88
59315;BME280;46521;50.160;20.802;2022-09-06T05:34:41;100411.39;;;13.16;51.38
59315;BME280;46521;50.160;20.802;2022-09-06T05:44:42;100392.00;;;13.88;51.61
59315;BME280;46521;50.160;20.802;2022-09-06T05:54:44;100408.85;;;14.83;50.71
59315;BME280;46521;50.160;20.802;2022-09-06T06:04:45;100403.45;;;15.67;50.02
59315;BME280;46521;50.160;20.802;2022-09-06T06:14:47;100401.08;;;16.54;49.48
59315;BME280;46521;50.160;20.802;2022-09-06T06:24:48;100412.00;;;17.45;48.20
59315;BME280;46521;50.160;20.802;2022-09-06T06:34:49;100401.33;;;18.15;47.66
59315;BME280;46521;50.160;20.802;2022-09-06T06:44:51;100404.84;;;18.98;46.87
59315;BME280;46521;50.160;20.802;2022-09-06T06:54:54;100398.84;;;19.56;45.71
59315;BME280;46521;50.160;20.802;2022-09-06T07:04:56;100396.17;;;20.28;45.22
59315;BME280;46521;50.160;20.802;2022-09-06T07:14:57;100392.25;;;21.01;44.20
59315;BME280;46521;50.160;20.802;2022-09-06T07:24:59;100395.16;;;21.50;42.83
59315;BME280;46521;50.160;20.802;2022-09-06T07:35:00;100414.05;;;21.87;42.27
59315;BME280;46521;50.160;20.802;2022-09-06T07:45:01;100401.51;;;22.48;40.98
59315;BME280;46521;50.160;20.802;2022-09-06T07:55:03;100418.55;;;23.02;39.98
59315;BME280;46521;50.160;20.802;2022-09-06T08:05:04;100409.57;;;23.44;39.48
59315;BME280;46521;50.160;20.802;2022-09-06T08:15:06;100402.77;;;23.53;38.30
59315;BME280;46521;50.160;20.802;2022-09-06T08:25:08;100389.72;;;23.15;37.54
59315;BME280;46521;50.160;20.802;2022-09-06T08:35:10;100383.49;;;22.30;37.09
59315;BME280;46521;50.160;20.802;2022-09-06T08:45:15;100385.32;;;21.81;36.62
59315;BME280;46521;50.160;20.802;2022-09-06T09:05:35;100366.03;;;22.63;35.48
59315;BME280;46521;50.160;20.802;2022-09-06T09:15:37;100363.80;;;22.60;34.58
59315;BME280;46521;50.160;20.802;2022-09-06T09:25:39;100358.25;;;22.97;34.38
59315;BME280;46521;50.160;20.802;2022-09-06T09:35:40;100357.71;;;23.42;33.66
59315;BME280;46521;50.160;20.802;2022-09-06T09:45:43;100335.92;;;24.25;33.28
59315;BME280;46521;50.160;20.802;2022-09-06T09:55:45;100319.70;;;24.42;32.42
59315;BME280;46521;50.160;20.802;2022-09-06T10:05:57;100308.84;;;24.54;32.51
59315;BME280;46521;50.160;20.802;2022-09-06T10:16:01;100303.61;;;24.98;31.58
59315;BME280;46521;50.160;20.802;2022-09-06T10:26:13;100282.45;;;24.95;31.43
59315;BME280;46521;50.160;20.802;2022-09-06T10:36:39;100271.60;;;25.29;30.64
59315;BME280;46521;50.160;20.802;2022-09-06T10:46:46;100264.30;;;25.51;30.40
59315;BME280;46521;50.160;20.802;2022-09-06T10:56:53;100254.11;;;25.86;29.90
59315;BME280;46521;50.160;20.802;2022-09-06T11:06:59;100248.24;;;25.45;29.54
59315;BME280;46521;50.160;20.802;2022-09-06T11:17:09;100235.90;;;25.54;29.25
59315;BME280;46521;50.160;20.802;2022-09-06T11:27:21;100224.05;;;25.60;28.96
59315;BME280;46521;50.160;20.802;2022-09-06T11:47:42;100209.54;;;25.71;28.50
59315;BME280;46521;50.160;20.802;2022-09-06T11:57:46;100200.14;;;25.52;28.28
59315;BME280;46521;50.160;20.802;2022-09-06T12:28:49;100174.81;;;24.41;28.03
59315;BME280;46521;50.160;20.802;2022-09-06T12:49:06;100148.25;;;24.55;27.88
59315;BME280;46521;50.160;20.802;2022-09-06T12:59:20;100148.99;;;24.50;28.12
59315;BME280;46521;50.160;20.802;2022-09-06T13:09:21;100148.41;;;24.48;27.99
59315;BME280;46521;50.160;20.802;2022-09-06T13:19:35;100153.67;;;24.38;27.80
59315;BME280;46521;50.160;20.802;2022-09-06T13:29:37;100158.44;;;23.97;27.88
59315;BME280;46521;50.160;20.802;2022-09-06T13:39:40;100154.76;;;23.74;27.99
59315;BME280;46521;50.160;20.802;2022-09-06T13:49:41;100128.20;;;23.54;28.00
59315;BME280;46521;50.160;20.802;2022-09-06T13:59:43;100126.38;;;23.43;28.16
59315;BME280;46521;50.160;20.802;2022-09-06T14:09:45;100117.48;;;23.42;28.20
59315;BME280;46521;50.160;20.802;2022-09-06T14:19:47;100108.85;;;23.28;28.25
59315;BME280;46521;50.160;20.802;2022-09-06T14:29:49;100088.62;;;23.02;28.39
59315;BME280;46521;50.160;20.802;2022-09-06T14:39:50;100076.95;;;22.84;28.22
59315;BME280;46521;50.160;20.802;2022-09-06T14:49:52;100085.94;;;22.49;28.58
59315;BME280;46521;50.160;20.802;2022-09-06T14:59:53;100078.17;;;22.18;28.76
59315;BME280;46521;50.160;20.802;2022-09-06T15:09:58;100079.34;;;21.98;28.91
59315;BME280;46521;50.160;20.802;2022-09-06T15:19:59;100075.81;;;21.86;29.24
59315;BME280;46521;50.160;20.802;2022-09-06T15:30:01;100070.89;;;21.83;29.43
59315;BME280;46521;50.160;20.802;2022-09-06T15:40:02;100059.78;;;21.79;29.49
59315;BME280;46521;50.160;20.802;2022-09-06T15:50:04;100061.86;;;21.65;29.67
59315;BME280;46521;50.160;20.802;2022-09-06T16:00:07;100060.66;;;21.49;29.61
59315;BME280;46521;50.160;20.802;2022-09-06T16:10:10;100061.95;;;21.28;30.29
59315;BME280;46521;50.160;20.802;2022-09-06T16:20:11;100061.95;;;20.98;30.64
59315;BME280;46521;50.160;20.802;2022-09-06T16:30:13;100061.25;;;20.72;31.08
59315;BME280;46521;50.160;20.802;2022-09-06T16:40:14;100057.18;;;20.44;31.40
59315;BME280;46521;50.160;20.802;2022-09-06T16:50:16;100046.93;;;20.16;31.87
59315;BME280;46521;50.160;20.802;2022-09-06T17:00:17;100047.17;;;19.89;32.45
59315;BME280;46521;50.160;20.802;2022-09-06T17:10:19;100048.23;;;19.56;32.92
59315;BME280;46521;50.160;20.802;2022-09-06T17:20:20;100058.34;;;19.22;33.29
59315;BME280;46521;50.160;20.802;2022-09-06T17:30:22;100056.39;;;18.98;33.30
59315;BME280;46521;50.160;20.802;2022-09-06T17:40:23;100058.91;;;18.79;34.05
59315;BME280;46521;50.160;20.802;2022-09-06T17:50:25;100056.11;;;18.54;34.19
59315;BME280;46521;50.160;20.802;2022-09-06T18:00:29;100065.47;;;18.25;34.59
59315;BME280;46521;50.160;20.802;2022-09-06T18:10:37;100083.40;;;18.04;34.82
59315;BME280;46521;50.160;20.802;2022-09-06T18:20:38;100080.48;;;17.86;35.09
59315;BME280;46521;50.160;20.802;2022-09-06T18:30:40;100088.28;;;17.67;35.30
59315;BME280;46521;50.160;20.802;2022-09-06T18:41:11;100096.47;;;17.52;35.89
59315;BME280;46521;50.160;20.802;2022-09-06T18:51:33;100107.16;;;17.39;35.63
59315;BME280;46521;50.160;20.802;2022-09-06T19:01:35;100100.48;;;17.15;36.32
59315;BME280;46521;50.160;20.802;2022-09-06T19:11:37;100096.52;;;16.97;36.32
59315;BME280;46521;50.160;20.802;2022-09-06T19:21:39;100090.44;;;16.82;36.75
59315;BME280;46521;50.160;20.802;2022-09-06T19:31:42;100085.84;;;16.62;36.66
59315;BME280;46521;50.160;20.802;2022-09-06T19:41:44;100087.80;;;16.47;36.89
59315;BME280;46521;50.160;20.802;2022-09-06T19:51:47;100100.42;;;16.31;36.76
59315;BME280;46521;50.160;20.802;2022-09-06T20:01:50;100086.34;;;16.16;36.89
59315;BME280;46521;50.160;20.802;2022-09-06T20:11:51;100087.84;;;15.97;37.04
59315;BME280;46521;50.160;20.802;2022-09-06T20:21:53;100095.70;;;15.77;36.87
59315;BME280;46521;50.160;20.802;2022-09-06T20:31:54;100078.25;;;15.59;36.87
59315;BME280;46521;50.160;20.802;2022-09-06T20:41:56;100078.57;;;15.49;36.98
59315;BME280;46521;50.160;20.802;2022-09-06T20:51:57;100069.61;;;15.36;37.02
59315;BME280;46521;50.160;20.802;2022-09-06T21:01:58;100060.83;;;15.20;37.07
59315;BME280;46521;50.160;20.802;2022-09-06T21:12:01;100072.17;;;15.07;37.32
59315;BME280;46521;50.160;20.802;2022-09-06T21:22:04;100066.70;;;14.94;37.66
59315;BME280;46521;50.160;20.802;2022-09-06T21:32:05;100063.94;;;14.87;37.74
59315;BME280;46521;50.160;20.802;2022-09-06T21:42:07;100069.38;;;14.79;37.80
59315;BME280;46521;50.160;20.802;2022-09-06T21:52:08;100065.16;;;14.70;37.78
59315;BME280;46521;50.160;20.802;2022-09-06T22:02:10;100062.93;;;14.58;38.49
59315;BME280;46521;50.160;20.802;2022-09-06T22:12:11;100052.20;;;14.52;38.40
59315;BME280;46521;50.160;20.802;2022-09-06T22:22:13;100050.09;;;14.47;38.20
59315;BME280;46521;50.160;20.802;2022-09-06T22:32:14;100052.67;;;14.40;38.67
59315;BME280;46521;50.160;20.802;2022-09-06T23:03:18;100011.81;;;14.03;39.22
59315;BME280;46521;50.160;20.802;2022-09-06T23:13:19;100015.73;;;13.78;39.60
59315;BME280;46521;50.160;20.802;2022-09-06T23:23:20;100007.42;;;13.58;39.49
59315;BME280;46521;50.160;20.802;2022-09-06T23:33:22;100010.97;;;13.50;39.79
59315;BME280;46521;50.160;20.802;2022-09-06T23:43:23;100012.84;;;13.41;40.43
59315;BME280;46521;50.160;20.802;2022-09-06T23:53:25;100003.78;;;13.27;40.62
